Portada
METAR-TAF:

METAR-TAF

Aeroports :

Armilla

Granada, Espanya

latitud: 37-08N, longitud: 003-38-08W, altitud: 700 m

Observació

L'informe es va fer fa 22 minuts, a les 17:00 UTC
Vent 3 kt amb direcció variable
Temperatura 17°C
Humitat 52%
Pressió 1013 hPa
Visibilitat 10 km o més
Cel cobert a una alçada de 7200 ft

METAR: LEGA 191700Z VRB03KT 9999 OVC072 17/07 Q1013

Hora: 19:22 (17:22 UTC)

Pronòstic

L'informe es va fer fa 3 hores i 22 minuts, a les 14:00 UTC
Pronòstic vàlid del 19 a les 15 UTC al 19 a les 24 UTC
Vent 8 kt del Sud
Visibilitat 10 km o més
Núvols disperses a una alçada de 4000 ft
Probabilitat 30% :
Temporalment
l' 19 a les 15 UTC al 19 a les 18 UTC
Núvols disperses a una alçada de 3000 ft, Cumulonimbus.

TAF: LEGA 191400Z 1915/1924 18008KT 9999 SCT040 PROB30 TEMPO 1915/1918 SCT030CB

Observacions i pronòstics meteorològics de més de 4000 aeroports (METAR i TAF).

Les estacions disponibles són els punts grocs i vermells al mapa.

Posi el ratolí al punt desitjat per veure el nom de l'estació.

Feu clic per veure les observacions i els pronòstics meteorològics.

Per canviar el mapa: feu clic els botons verds amb una creu de color negre per apropar; al botó verd amb un guió per allunyar la imatge; o en les fletxes verdes per a mapes adjacents.


METAR-TAF: